Huvudsida
METAR-TAF:

METAR-TAF

Flygplatser :

Limoges, Frankrike

latitud: 45-52N, longitud: 001-11E, höjd: 396 m

Aktuellt väderrapport

Denna rapport gjordes för 42 minuter sedan, klockan 15:00 UTC
Vind 18 kt från nord/nordost
Temperatur 5°C
Fuktighet 56%
Tryck 1021 hPa
Sikt 10 km eller mer
Brutna moln på en höjd av 3500 ft
Brutna moln på en höjd av 4800 ft
Brutna moln på en höjd av 6000 ft

METAR: LFBL 291500Z AUTO 03018KT 9999 BKN035 BKN048 BKN060 05/M03 Q1021

Tid: 17:42 (15:42 UTC)

Väderprognos

Denna rapport gjordes för 22 timmar och 42 minuter sedan, klockan 17:00 UTC
Prognos gäller från 27 kl. 18 UTC till 28 kl. 18 UTC
Vind 6 kt från nord/nordost
Sikt 10 km eller mer
Inga moln under 1 500 m eller inga cumulonimbus

TAF: LFBL 271700Z 2718/2818 02006KT CAVOK

Aktuella väderrapporter och prognoser från 4000 flygplatser (METAR- och TAF-rapporter).

De tillgängliga stationerna syns som gula och röda prickar på kartan.

För musen över prickarna för att se namnen på stationerna.

Klicka sedan för att få väderrapporter och prognoser.

För att ändra kartan: Klicka på de gröna knapparna med ett svart kors på för att zooma in; den gröna knappen med ett streck på för att zooma ut; eller på de gröna pilarna för angränsande kartor.


METAR-TAF: